Kasimov, Russia
Current Conditions -  °F | °C
As of 12:30 AM on Sunday 23 Nov 2014 (Local Time) from UWGG Reporting Station
Broken Clouds Broken Clouds  
Wind Chill: 21°   Ceiling: 10000
Heat Index: 28°   Visibility: 5mi
Dew Point: 21°   Wind: 7mph
Humidity: 74%   Direction: 280°W
Pressure: 30.27"   Gusts: NA
Location:  54.94°N, 41.39°E
Report Text: UWGG 222130Z 28003MPS 8000 SCT033 BKN100 M02/M06 Q1025 NOSIG36090060 RMK QFE762
Loading
Personal Weather Stations






























Interactive Weather Map New forecast layout! Learn more

10-Day Weather Forecast

Advertisements
Track Severe Weather on mobile